createdAt,value
2024-03-26T00:00:39.205Z,0.1
2024-03-26T00:02:38.095Z,0.2
2024-03-26T00:04:39.038Z,0.2
2024-03-26T00:06:38.057Z,0.2
2024-03-26T00:08:39.687Z,0.2
2024-03-26T00:10:35.280Z,0.2
2024-03-26T00:12:42.012Z,0.2
2024-03-26T00:14:35.119Z,0.2
2024-03-26T00:16:42.081Z,0.2
2024-03-26T00:18:37.981Z,0.2
2024-03-26T00:20:43.912Z,0.2
2024-03-26T00:22:35.462Z,0.2
2024-03-26T00:24:39.264Z,0.2
2024-03-26T00:26:37.980Z,0.2
2024-03-26T00:28:42.177Z,0.2
2024-03-26T00:30:37.950Z,0.2
2024-03-26T00:32:39.628Z,0.2
2024-03-26T00:34:37.688Z,0.2
2024-03-26T00:36:41.200Z,0.2
2024-03-26T00:38:38.016Z,0.2
2024-03-26T00:40:42.541Z,0.2
2024-03-26T00:42:37.888Z,0.2
2024-03-26T00:44:42.224Z,0.2
2024-03-26T00:46:38.139Z,0.2
2024-03-26T00:48:43.536Z,0.2
2024-03-26T00:50:38.031Z,0.2
2024-03-26T00:52:42.512Z,0.2
2024-03-26T00:54:37.949Z,0.2
2024-03-26T00:56:39.644Z,0.2
2024-03-26T00:58:38.037Z,0.1
2024-03-26T01:00:43.492Z,0.1
2024-03-26T01:02:37.946Z,0.1
2024-03-26T01:04:42.758Z,0.1
2024-03-26T01:06:38.016Z,0.1
2024-03-26T01:08:41.974Z,0.1
2024-03-26T01:10:38.055Z,0.1
2024-03-26T01:12:42.817Z,0.1
2024-03-26T01:14:35.265Z,0.1
2024-03-26T01:16:39.312Z,0.1
2024-03-26T01:18:35.247Z,0.1
2024-03-26T01:22:38.370Z,0.1
2024-03-26T01:24:38.023Z,0.1
2024-03-26T01:26:39.185Z,0.1
2024-03-26T01:28:35.290Z,0.1
2024-03-26T01:30:39.338Z,0.1
2024-03-26T01:32:37.958Z,0.1
2024-03-26T01:34:39.296Z,0.1
2024-03-26T01:36:35.394Z,0.1
2024-03-26T01:38:41.589Z,0.1
2024-03-26T01:40:37.928Z,0.1
2024-03-26T01:42:39.245Z,0.1
2024-03-26T01:44:37.994Z,0.1
2024-03-26T01:46:39.584Z,0.1
2024-03-26T01:48:37.908Z,0.1
2024-03-26T01:50:39.236Z,0.1
2024-03-26T01:52:38.017Z,0.1
2024-03-26T01:54:41.088Z,0.1
2024-03-26T01:56:37.925Z,0.1
2024-03-26T01:58:43.569Z,0.1
2024-03-26T02:00:37.917Z,0.1
2024-03-26T02:04:38.871Z,0.1
2024-03-26T02:06:38.099Z,0.1
2024-03-26T02:08:39.499Z,0.1
2024-03-26T02:10:38.014Z,0.1
2024-03-26T02:12:39.635Z,0.1
2024-03-26T02:14:38.155Z,0.1
2024-03-26T02:16:39.642Z,0.1
2024-03-26T02:18:38.617Z,0.1
2024-03-26T02:20:39.622Z,0.1
2024-03-26T02:22:38.110Z,0.1
2024-03-26T02:24:39.599Z,0.1
2024-03-26T02:26:38.053Z,0.1
2024-03-26T02:28:42.452Z,0.1
2024-03-26T02:30:38.124Z,0.1
2024-03-26T02:32:42.517Z,0.1
2024-03-26T02:34:37.981Z,0.1
2024-03-26T02:36:41.044Z,0.1
2024-03-26T02:38:35.299Z,0.1
2024-03-26T02:40:42.449Z,0.1
2024-03-26T02:42:38.005Z,0.1
2024-03-26T02:46:41.025Z,0.1
2024-03-26T02:48:34.853Z,0.1
2024-03-26T02:50:39.220Z,0.1
2024-03-26T02:52:37.951Z,0.1
2024-03-26T02:54:39.678Z,0.1
2024-03-26T02:56:38.134Z,0
2024-03-26T02:58:41.588Z,0.1
2024-03-26T03:00:35.279Z,0.1
2024-03-26T03:02:44.558Z,0.1
2024-03-26T03:04:36.766Z,0.1
2024-03-26T03:06:39.665Z,0.1
2024-03-26T03:08:37.963Z,0.1
2024-03-26T03:10:39.658Z,0.1
2024-03-26T03:12:38.009Z,0
2024-03-26T03:14:40.681Z,0
2024-03-26T03:16:37.719Z,0
2024-03-26T03:18:42.353Z,0
2024-03-26T03:20:38.035Z,0
2024-03-26T03:22:41.584Z,0
2024-03-26T03:24:38.121Z,0.1
2024-03-26T03:26:42.458Z,0
2024-03-26T03:28:37.656Z,0
2024-03-26T03:30:40.669Z,0
2024-03-26T03:32:38.003Z,0
2024-03-26T03:34:43.480Z,0
2024-03-26T03:36:38.107Z,0
2024-03-26T03:38:39.366Z,0
2024-03-26T03:40:38.035Z,0
2024-03-26T03:44:42.529Z,0
2024-03-26T03:46:38.023Z,0
2024-03-26T03:48:40.671Z,1
2024-03-26T03:50:38.014Z,0
2024-03-26T03:54:39.307Z,1
2024-03-26T03:56:38.083Z,0
2024-03-26T03:58:39.316Z,0
2024-03-26T04:00:38.121Z,0
2024-03-26T04:02:41.658Z,1
2024-03-26T04:04:38.053Z,1
2024-03-26T04:06:41.655Z,0
2024-03-26T04:08:38.072Z,0
2024-03-26T04:10:40.676Z,0
2024-03-26T04:12:38.149Z,0
2024-03-26T04:14:39.286Z,0
2024-03-26T04:16:38.055Z,0
2024-03-26T04:18:40.649Z,0
2024-03-26T04:20:38.010Z,0
2024-03-26T04:22:42.451Z,0
2024-03-26T04:24:38.076Z,0.1
2024-03-26T04:26:42.428Z,0.1
2024-03-26T04:28:38.072Z,0.2
2024-03-26T04:30:41.403Z,0.3
2024-03-26T04:32:38.080Z,0.4
2024-03-26T04:34:41.375Z,0.6
2024-03-26T04:36:38.027Z,0.9
2024-03-26T04:38:42.584Z,1.3
2024-03-26T04:40:37.967Z,1.9
2024-03-26T04:42:39.389Z,2.9
2024-03-26T04:44:38.323Z,4.1
2024-03-26T04:46:42.480Z,6
2024-03-26T04:48:38.128Z,9
2024-03-26T04:50:39.264Z,13.5
2024-03-26T04:52:38.066Z,20.1
2024-03-26T04:54:38.911Z,28.5
2024-03-26T04:56:38.060Z,40.4
2024-03-26T04:58:39.440Z,49.4
2024-03-26T05:00:38.010Z,57.4
2024-03-26T05:02:42.546Z,70.1
2024-03-26T05:04:38.044Z,81.5
2024-03-26T05:06:39.433Z,99.5
2024-03-26T05:08:38.091Z,121.5
2024-03-26T05:10:42.519Z,148.4
2024-03-26T05:12:38.216Z,181.3
2024-03-26T05:14:43.688Z,210.6
2024-03-26T05:16:38.481Z,257.2
2024-03-26T05:18:39.277Z,298.9
2024-03-26T05:20:38.064Z,330.3
2024-03-26T05:22:43.703Z,383.8
2024-03-26T05:24:35.227Z,445.9
2024-03-26T05:30:40.703Z,632.7
2024-03-26T05:32:38.095Z,699.2
2024-03-26T05:34:41.590Z,772.8
2024-03-26T05:36:35.355Z,772.8
2024-03-26T05:38:39.359Z,897.8
2024-03-26T05:40:38.080Z,943.9
2024-03-26T05:42:39.390Z,1152.9
2024-03-26T05:44:38.134Z,1212
2024-03-26T05:46:41.379Z,1274.1
2024-03-26T05:48:35.392Z,1274.1
2024-03-26T05:50:40.087Z,1480.3
2024-03-26T05:52:39.994Z,1556.2
2024-03-26T05:54:41.614Z,1636
2024-03-26T05:56:38.044Z,1719.9
2024-03-26T05:58:41.546Z,1808
2024-03-26T06:00:35.295Z,1808
2024-03-26T06:02:42.598Z,1998.2
2024-03-26T06:04:38.283Z,2100.6
2024-03-26T06:06:40.521Z,2208.3
2024-03-26T06:08:38.016Z,2321.6
2024-03-26T06:10:42.963Z,2321.6
2024-03-26T06:12:38.105Z,2321.6
2024-03-26T06:14:38.920Z,2440.6
2024-03-26T06:16:36.922Z,2440.6
2024-03-26T06:18:39.023Z,2565.7
2024-03-26T06:20:37.975Z,2565.7
2024-03-26T06:22:39.732Z,2697.3
2024-03-26T06:24:37.734Z,2835.6
2024-03-26T06:28:39.716Z,2835.6
2024-03-26T06:30:38.112Z,2981
2024-03-26T06:32:38.929Z,2981
2024-03-26T06:34:38.059Z,2981
2024-03-26T06:36:39.774Z,3133.8
2024-03-26T06:38:37.889Z,3294.5
2024-03-26T06:40:40.701Z,3463.4
2024-03-26T06:42:38.153Z,3463.4
2024-03-26T06:44:43.003Z,3827.6
2024-03-26T06:46:38.126Z,4230.2
2024-03-26T06:50:39.426Z,8103.1
2024-03-26T06:52:35.429Z,8103.1
2024-03-26T06:54:41.833Z,10404.6
2024-03-26T06:56:38.165Z,10404.6
2024-03-26T06:58:39.543Z,10938
2024-03-26T07:00:38.222Z,12708.2
2024-03-26T07:02:41.310Z,12708.2
2024-03-26T07:04:38.104Z,10938
2024-03-26T07:06:40.766Z,10938
2024-03-26T07:08:38.052Z,11498.8
2024-03-26T07:10:42.250Z,11498.8
2024-03-26T07:12:38.143Z,12708.2
2024-03-26T07:14:39.373Z,12708.2
2024-03-26T07:16:38.085Z,12708.2
2024-03-26T07:18:39.093Z,12708.2
2024-03-26T07:20:37.878Z,13359.7
2024-03-26T07:22:39.708Z,10404.6
2024-03-26T07:24:38.184Z,8955.3
2024-03-26T07:26:41.315Z,10404.6
2024-03-26T07:28:39.926Z,11498.8
2024-03-26T07:30:39.481Z,13359.7
2024-03-26T07:32:35.672Z,12088.4
2024-03-26T07:34:40.802Z,7707.9
2024-03-26T07:36:38.315Z,8518.5
2024-03-26T07:38:43.234Z,9414.4
2024-03-26T07:40:38.250Z,7707.9
2024-03-26T07:42:42.734Z,7707.9
2024-03-26T07:44:38.253Z,8103.1
2024-03-26T07:46:40.878Z,11498.8
2024-03-26T07:48:38.182Z,12708.2
2024-03-26T07:50:40.775Z,13359.7
2024-03-26T07:52:38.158Z,14044.7
2024-03-26T07:54:43.372Z,14764.8
2024-03-26T07:56:38.239Z,10938
2024-03-26T07:58:40.149Z,8955.3
2024-03-26T08:00:35.264Z,8955.3
2024-03-26T08:02:39.194Z,7707.9
2024-03-26T08:04:39.409Z,7332
2024-03-26T08:08:39.400Z,7332
2024-03-26T08:10:39.215Z,7332
2024-03-26T08:12:40.184Z,7332
2024-03-26T08:14:36.974Z,7332
2024-03-26T08:16:39.711Z,7707.9
2024-03-26T08:18:38.420Z,7707.9
2024-03-26T08:20:42.751Z,8103.1
2024-03-26T08:22:38.320Z,8103.1
2024-03-26T08:24:39.457Z,8518.5
2024-03-26T08:26:36.981Z,8518.5
2024-03-26T08:28:41.096Z,8518.5
2024-03-26T08:30:37.893Z,8955.3
2024-03-26T08:34:42.485Z,8955.3
2024-03-26T08:36:38.059Z,8955.3
2024-03-26T08:38:40.850Z,8955.3
2024-03-26T08:40:36.957Z,8955.3
2024-03-26T08:42:40.977Z,9414.4
2024-03-26T08:44:37.975Z,9414.4
2024-03-26T08:46:43.325Z,9414.4
2024-03-26T08:48:38.139Z,9897.1
2024-03-26T08:50:39.691Z,10404.6
2024-03-26T08:52:38.160Z,10938
2024-03-26T08:54:43.655Z,10938
2024-03-26T08:56:38.249Z,10404.6
2024-03-26T08:58:39.443Z,10404.6
2024-03-26T09:00:38.214Z,10938
2024-03-26T09:02:39.406Z,11498.8
2024-03-26T09:04:38.020Z,11498.8
2024-03-26T09:06:41.738Z,11498.8
2024-03-26T09:08:38.178Z,11498.8
2024-03-26T09:10:41.218Z,12088.4
2024-03-26T09:12:38.191Z,12088.4
2024-03-26T09:16:39.760Z,12708.2
2024-03-26T09:18:35.470Z,12708.2
2024-03-26T09:20:39.798Z,12708.2
2024-03-26T09:22:38.314Z,13359.7
2024-03-26T09:24:46.042Z,13359.7
2024-03-26T09:26:38.246Z,13359.7
2024-03-26T09:28:42.355Z,14044.7
2024-03-26T09:30:38.357Z,14044.7
2024-03-26T09:32:41.639Z,14764.8
2024-03-26T09:34:38.356Z,14764.8
2024-03-26T09:36:42.738Z,14764.8
2024-03-26T09:38:43.657Z,14044.7
2024-03-26T09:40:42.439Z,14044.7
2024-03-26T09:42:38.262Z,14044.7
2024-03-26T09:44:39.387Z,13359.7
2024-03-26T09:46:38.382Z,13359.7
2024-03-26T09:48:41.579Z,12708.2
2024-03-26T09:50:35.439Z,12708.2
2024-03-26T09:52:42.552Z,11498.8
2024-03-26T09:54:38.298Z,11498.8
2024-03-26T09:56:41.210Z,11498.8
2024-03-26T09:58:38.310Z,11498.8
2024-03-26T10:02:40.806Z,11498.8
2024-03-26T10:04:38.325Z,12088.4
2024-03-26T10:06:40.209Z,12088.4
2024-03-26T10:08:38.162Z,12088.4
2024-03-26T10:10:39.543Z,12088.4
2024-03-26T10:12:38.202Z,12088.4
2024-03-26T10:14:39.379Z,12708.2
2024-03-26T10:16:35.676Z,12708.2
2024-03-26T10:18:41.484Z,12708.2
2024-03-26T10:20:38.211Z,12708.2
2024-03-26T10:22:40.124Z,12708.2
2024-03-26T10:24:38.162Z,12708.2
2024-03-26T10:26:39.846Z,13359.7
2024-03-26T10:28:38.239Z,14044.7
2024-03-26T10:30:40.378Z,14764.8
2024-03-26T10:32:38.250Z,14764.8
2024-03-26T10:34:39.844Z,14764.8
2024-03-26T10:36:38.226Z,13359.7
2024-03-26T10:38:45.423Z,13359.7
2024-03-26T10:40:38.279Z,13359.7
2024-03-26T10:42:39.706Z,12708.2
2024-03-26T10:44:38.270Z,12708.2
2024-03-26T10:46:42.104Z,12708.2
2024-03-26T10:48:44.465Z,13359.7
2024-03-26T10:50:39.800Z,13359.7
2024-03-26T10:52:38.473Z,12708.2
2024-03-26T10:54:43.647Z,10938
2024-03-26T10:56:38.173Z,10404.6
2024-03-26T10:58:40.985Z,10404.6
2024-03-26T11:00:38.282Z,10938
2024-03-26T11:02:43.031Z,12088.4
2024-03-26T11:04:38.788Z,13359.7
2024-03-26T11:06:39.459Z,14044.7
2024-03-26T11:08:38.360Z,14044.7
2024-03-26T11:10:40.311Z,14044.7
2024-03-26T11:12:38.326Z,14764.8
2024-03-26T11:14:39.995Z,14044.7
2024-03-26T11:16:38.268Z,13359.7
2024-03-26T11:18:43.489Z,13359.7
2024-03-26T11:20:38.217Z,13359.7
2024-03-26T11:22:39.922Z,13359.7
2024-03-26T11:24:38.394Z,13359.7
2024-03-26T11:26:39.117Z,12708.2
2024-03-26T11:28:38.389Z,12708.2
2024-03-26T11:30:39.617Z,12708.2
2024-03-26T11:32:38.303Z,13359.7
2024-03-26T11:34:38.801Z,13359.7
2024-03-26T11:36:38.297Z,13359.7
2024-03-26T11:38:43.718Z,12708.2
2024-03-26T11:40:37.058Z,12708.2
2024-03-26T11:42:39.759Z,12708.2
2024-03-26T11:44:38.285Z,12708.2
2024-03-26T11:46:42.367Z,12708.2
2024-03-26T11:48:38.310Z,13359.7
2024-03-26T11:50:39.487Z,14044.7
2024-03-26T11:52:38.275Z,14764.8
2024-03-26T11:54:41.248Z,15521.8
2024-03-26T11:56:38.333Z,16317.6
2024-03-26T11:58:39.532Z,17154.2
2024-03-26T12:00:38.283Z,17154.2
2024-03-26T12:02:39.473Z,17154.2
2024-03-26T12:04:36.970Z,17154.2
2024-03-26T12:06:43.153Z,17154.2
2024-03-26T12:08:38.219Z,15521.8
2024-03-26T12:12:41.261Z,15521.8
2024-03-26T12:14:38.333Z,14764.8
2024-03-26T12:16:39.738Z,13359.7
2024-03-26T12:18:38.365Z,14044.7
2024-03-26T12:20:40.801Z,15521.8
2024-03-26T12:22:38.295Z,16317.6
2024-03-26T12:24:39.407Z,15521.8
2024-03-26T12:26:38.445Z,15521.8
2024-03-26T12:28:42.804Z,15521.8
2024-03-26T12:30:38.386Z,15521.8
2024-03-26T12:32:39.074Z,15521.8
2024-03-26T12:34:38.338Z,15521.8
2024-03-26T12:36:39.886Z,15521.8
2024-03-26T12:38:38.357Z,14764.8
2024-03-26T12:40:42.795Z,14764.8
2024-03-26T12:42:38.074Z,14764.8
2024-03-26T12:44:43.027Z,14764.8
2024-03-26T12:46:38.246Z,14044.7
2024-03-26T12:48:40.215Z,14044.7
2024-03-26T12:50:38.387Z,13359.7
2024-03-26T12:52:42.169Z,13359.7
2024-03-26T12:54:38.326Z,13359.7
2024-03-26T12:56:43.589Z,13359.7
2024-03-26T12:58:38.378Z,13359.7
2024-03-26T13:00:39.387Z,12708.2
2024-03-26T13:02:38.354Z,12708.2
2024-03-26T13:04:42.186Z,12708.2
2024-03-26T13:06:38.336Z,12708.2
2024-03-26T13:08:39.065Z,12708.2
2024-03-26T13:10:38.363Z,12708.2
2024-03-26T13:12:39.795Z,12708.2
2024-03-26T13:14:38.390Z,12708.2
2024-03-26T13:16:39.405Z,12708.2
2024-03-26T13:18:38.440Z,12708.2
2024-03-26T13:20:39.481Z,12708.2
2024-03-26T13:22:38.326Z,12088.4
2024-03-26T13:24:39.770Z,12708.2
2024-03-26T13:26:38.375Z,12708.2
2024-03-26T13:28:39.119Z,12708.2
2024-03-26T13:30:44.432Z,10938
2024-03-26T13:32:41.478Z,10404.6
2024-03-26T13:34:38.389Z,10404.6
2024-03-26T13:36:41.275Z,10938
2024-03-26T13:38:41.099Z,11498.8
2024-03-26T13:40:46.585Z,11498.8
2024-03-26T13:42:38.390Z,10938
2024-03-26T13:44:43.816Z,10938
2024-03-26T13:46:38.243Z,10938
2024-03-26T13:48:39.462Z,11498.8
2024-03-26T13:50:38.933Z,10404.6
2024-03-26T13:52:39.867Z,10404.6
2024-03-26T13:54:38.290Z,9897.1
2024-03-26T13:56:40.906Z,9414.4
2024-03-26T13:58:38.392Z,9897.1
2024-03-26T14:00:40.861Z,9897.1
2024-03-26T14:02:38.260Z,10404.6
2024-03-26T14:04:39.443Z,10404.6
2024-03-26T14:06:38.413Z,10404.6
2024-03-26T14:08:41.139Z,9897.1
2024-03-26T14:10:38.380Z,9897.1
2024-03-26T14:12:39.801Z,9414.4
2024-03-26T14:14:38.345Z,9414.4
2024-03-26T14:16:39.818Z,9414.4
2024-03-26T14:18:38.339Z,9414.4
2024-03-26T14:20:42.505Z,8955.3
2024-03-26T14:22:38.227Z,8955.3
2024-03-26T14:24:39.806Z,8955.3
2024-03-26T14:26:38.379Z,8955.3
2024-03-26T14:28:40.348Z,8955.3
2024-03-26T14:30:38.338Z,8955.3
2024-03-26T14:32:39.762Z,8955.3
2024-03-26T14:34:38.282Z,8518.5
2024-03-26T14:36:39.457Z,8518.5
2024-03-26T14:38:38.328Z,8518.5
2024-03-26T14:40:39.979Z,8518.5
2024-03-26T14:42:38.338Z,8518.5
2024-03-26T14:44:42.731Z,8518.5
2024-03-26T14:46:38.214Z,8518.5
2024-03-26T14:48:39.086Z,8518.5
2024-03-26T14:50:38.438Z,8103.1
2024-03-26T14:52:41.200Z,7707.9
2024-03-26T14:54:38.492Z,7707.9
2024-03-26T14:56:39.768Z,7332
2024-03-26T14:58:38.333Z,7332
2024-03-26T15:00:39.866Z,7332
2024-03-26T15:02:38.345Z,7332
2024-03-26T15:04:42.236Z,6974.4
2024-03-26T15:06:38.417Z,6974.4
2024-03-26T15:08:39.411Z,6634.2
2024-03-26T15:10:38.311Z,6974.4
2024-03-26T15:12:39.852Z,6974.4
2024-03-26T15:14:38.503Z,6974.4
2024-03-26T15:16:40.068Z,6634.2
2024-03-26T15:18:38.384Z,6634.2
2024-03-26T15:20:39.796Z,6310.7
2024-03-26T15:22:38.370Z,6310.7
2024-03-26T15:24:39.736Z,6002.9
2024-03-26T15:26:38.329Z,5710.1
2024-03-26T15:28:39.775Z,5710.1
2024-03-26T15:30:38.401Z,5710.1
2024-03-26T15:32:39.445Z,5431.7
2024-03-26T15:34:38.340Z,5431.7
2024-03-26T15:36:39.899Z,5166.8
2024-03-26T15:38:38.395Z,5166.8
2024-03-26T15:40:41.167Z,4914.8
2024-03-26T15:42:38.391Z,4914.8
2024-03-26T15:44:41.217Z,4914.8
2024-03-26T15:46:44.324Z,4914.8
2024-03-26T15:48:39.519Z,4675.1
2024-03-26T15:50:38.426Z,4675.1
2024-03-26T15:52:39.522Z,4675.1
2024-03-26T15:54:38.358Z,4675.1
2024-03-26T15:56:41.333Z,4447.1
2024-03-26T15:58:38.354Z,4230.2
2024-03-26T16:00:41.355Z,4230.2
2024-03-26T16:02:38.370Z,4675.1
2024-03-26T16:04:39.899Z,4675.1
2024-03-26T16:06:38.299Z,4675.1
2024-03-26T16:08:39.422Z,4447.1
2024-03-26T16:10:45.008Z,4447.1
2024-03-26T16:12:42.538Z,4230.2
2024-03-26T16:14:38.338Z,4230.2
2024-03-26T16:16:39.798Z,4023.9
2024-03-26T16:18:38.038Z,4023.9
2024-03-26T16:20:41.240Z,4023.9
2024-03-26T16:22:37.963Z,4023.9
2024-03-26T16:24:39.433Z,3827.6
2024-03-26T16:26:38.281Z,3827.6
2024-03-26T16:28:43.815Z,3641
2024-03-26T16:30:38.337Z,3463.4
2024-03-26T16:32:42.099Z,3294.5
2024-03-26T16:34:38.388Z,3133.8
2024-03-26T16:36:42.807Z,2981
2024-03-26T16:38:38.456Z,2835.6
2024-03-26T16:40:39.034Z,2697.3
2024-03-26T16:42:38.773Z,2565.7
2024-03-26T16:44:39.392Z,2440.6
2024-03-26T16:46:39.608Z,2321.6
2024-03-26T16:48:39.871Z,2208.3
2024-03-26T16:50:38.219Z,2100.6
2024-03-26T16:52:42.717Z,1900.7
2024-03-26T16:54:38.292Z,1808
2024-03-26T16:56:41.142Z,1719.9
2024-03-26T16:58:38.007Z,1556.2
2024-03-26T17:00:39.843Z,1480.3
2024-03-26T17:02:38.267Z,1339.4
2024-03-26T17:04:41.357Z,1274.1
2024-03-26T17:06:38.405Z,1152.9
2024-03-26T17:08:39.176Z,1043.1
2024-03-26T17:10:38.347Z,992.3
2024-03-26T17:12:41.161Z,854.1
2024-03-26T17:14:38.332Z,699.2
2024-03-26T17:16:59.067Z,632.7
2024-03-26T17:18:38.449Z,572.5
2024-03-26T17:20:39.795Z,518
2024-03-26T17:22:38.295Z,445.9
2024-03-26T17:24:41.219Z,383.8
2024-03-26T17:26:38.460Z,330.3
2024-03-26T17:28:43.585Z,270.4
2024-03-26T17:30:38.416Z,232.8
2024-03-26T17:32:39.860Z,190.6
2024-03-26T17:34:38.430Z,156
2024-03-26T17:36:39.819Z,127.7
2024-03-26T17:38:38.345Z,99.5
2024-03-26T17:40:42.307Z,77.5
2024-03-26T17:42:38.379Z,60.3
2024-03-26T17:44:39.831Z,47
2024-03-26T17:46:38.388Z,36.6
2024-03-26T17:48:42.197Z,27.1
2024-03-26T17:50:38.350Z,20.1
2024-03-26T17:52:39.492Z,14.9
2024-03-26T17:54:38.418Z,10.5
2024-03-26T17:56:42.705Z,7
2024-03-26T17:58:38.428Z,5
2024-03-26T18:00:39.540Z,3.3
2024-03-26T18:02:38.373Z,2.3
2024-03-26T18:04:41.250Z,1.6
2024-03-26T18:06:38.502Z,1.1
2024-03-26T18:08:42.746Z,0.7
2024-03-26T18:10:38.425Z,0.4
2024-03-26T18:12:41.267Z,0.3
2024-03-26T18:14:38.435Z,0.2
2024-03-26T18:16:40.909Z,0.2
2024-03-26T18:18:38.410Z,0.1
2024-03-26T18:20:42.243Z,0.1
2024-03-26T18:22:38.314Z,0
2024-03-26T18:24:39.915Z,0
2024-03-26T18:26:38.434Z,0
2024-03-26T18:28:41.130Z,0
2024-03-26T18:30:38.583Z,1
2024-03-26T18:32:42.816Z,1
2024-03-26T18:34:38.369Z,1
2024-03-26T18:36:42.711Z,1
2024-03-26T18:38:38.504Z,1
2024-03-26T18:40:40.852Z,1
2024-03-26T18:42:38.328Z,1
2024-03-26T18:44:42.460Z,1
2024-03-26T18:46:38.320Z,1
2024-03-26T18:48:39.812Z,1
2024-03-26T18:50:38.410Z,1
2024-03-26T18:52:41.678Z,1
2024-03-26T18:54:38.420Z,1
2024-03-26T18:56:39.685Z,1
2024-03-26T18:58:38.330Z,1
2024-03-26T19:00:40.600Z,1
2024-03-26T19:02:38.364Z,1
2024-03-26T19:04:39.415Z,1
2024-03-26T19:06:38.448Z,1
2024-03-26T19:08:40.292Z,1
2024-03-26T19:10:38.461Z,1
2024-03-26T19:12:41.271Z,1
2024-03-26T19:14:38.336Z,1
2024-03-26T19:16:43.066Z,1
2024-03-26T19:18:38.437Z,1
2024-03-26T19:20:39.477Z,1
2024-03-26T19:22:38.367Z,1
2024-03-26T19:24:41.241Z,1
2024-03-26T19:26:38.435Z,1
2024-03-26T19:28:39.824Z,1
2024-03-26T19:30:38.509Z,1
2024-03-26T19:32:39.860Z,1
2024-03-26T19:34:38.393Z,1
2024-03-26T19:36:41.400Z,1
2024-03-26T19:38:38.325Z,1
2024-03-26T19:40:39.802Z,1
2024-03-26T19:42:38.478Z,1
2024-03-26T19:44:43.106Z,1
2024-03-26T19:46:38.319Z,1
2024-03-26T19:48:40.276Z,1
2024-03-26T19:50:38.451Z,1
2024-03-26T19:52:41.274Z,1
2024-03-26T19:54:38.413Z,1
2024-03-26T19:56:39.861Z,1
2024-03-26T19:58:38.444Z,1
2024-03-26T20:00:40.315Z,1
2024-03-26T20:02:38.402Z,1
2024-03-26T20:04:40.257Z,1
2024-03-26T20:06:38.403Z,1
2024-03-26T20:08:39.557Z,1
2024-03-26T20:10:38.544Z,1
2024-03-26T20:12:42.541Z,1
2024-03-26T20:14:38.319Z,1
2024-03-26T20:16:43.797Z,1
2024-03-26T20:18:38.477Z,1
2024-03-26T20:20:42.361Z,1
2024-03-26T20:22:38.408Z,1
2024-03-26T20:24:40.223Z,1
2024-03-26T20:26:38.321Z,1
2024-03-26T20:28:42.075Z,1
2024-03-26T20:30:38.487Z,1
2024-03-26T20:32:40.092Z,1
2024-03-26T20:34:38.390Z,1
2024-03-26T20:36:44.894Z,1
2024-03-26T20:38:38.338Z,1
2024-03-26T20:40:48.251Z,1
2024-03-26T20:42:38.184Z,1
2024-03-26T20:44:39.782Z,1
2024-03-26T20:46:38.308Z,1
2024-03-26T20:48:42.647Z,0
2024-03-26T20:50:38.455Z,0
2024-03-26T20:52:41.769Z,0
2024-03-26T20:54:38.452Z,0
2024-03-26T20:56:39.899Z,0
2024-03-26T20:58:38.289Z,0
2024-03-26T21:00:44.980Z,0
2024-03-26T21:02:38.437Z,0
2024-03-26T21:04:40.661Z,0
2024-03-26T21:06:38.141Z,0
2024-03-26T21:08:39.946Z,0
2024-03-26T21:10:38.340Z,0
2024-03-26T21:12:40.043Z,0
2024-03-26T21:14:40.332Z,0
2024-03-26T21:16:42.238Z,0
2024-03-26T21:18:38.437Z,0
2024-03-26T21:20:40.286Z,0
2024-03-26T21:22:38.345Z,0
2024-03-26T21:24:44.564Z,0
2024-03-26T21:26:38.432Z,0
2024-03-26T21:28:42.759Z,0
2024-03-26T21:30:38.428Z,0
2024-03-26T21:32:39.558Z,0
2024-03-26T21:34:38.417Z,0
2024-03-26T21:36:41.821Z,0
2024-03-26T21:38:38.432Z,0
2024-03-26T21:40:40.354Z,0
2024-03-26T21:42:38.472Z,0
2024-03-26T21:44:39.526Z,0
2024-03-26T21:46:38.383Z,0
2024-03-26T21:48:40.178Z,0
2024-03-26T21:50:38.479Z,0
2024-03-26T21:52:39.977Z,0
2024-03-26T21:54:38.338Z,0
2024-03-26T21:56:43.758Z,0
2024-03-26T21:58:38.333Z,0
2024-03-26T22:00:39.878Z,0
2024-03-26T22:02:38.453Z,0
2024-03-26T22:04:41.424Z,0
2024-03-26T22:06:38.463Z,0
2024-03-26T22:08:43.300Z,0
2024-03-26T22:10:38.324Z,0
2024-03-26T22:12:43.463Z,0
2024-03-26T22:14:38.452Z,0
2024-03-26T22:16:39.747Z,0.1
2024-03-26T22:18:38.494Z,0.1
2024-03-26T22:20:41.357Z,0
2024-03-26T22:22:38.505Z,0
2024-03-26T22:24:39.935Z,0.1
2024-03-26T22:26:38.344Z,0
2024-03-26T22:28:42.816Z,0.1
2024-03-26T22:30:38.569Z,0.1
2024-03-26T22:32:40.200Z,0
2024-03-26T22:34:38.549Z,0.1
2024-03-26T22:36:41.681Z,0.1
2024-03-26T22:38:38.981Z,0.1
2024-03-26T22:40:40.254Z,0.1
2024-03-26T22:42:38.491Z,0.1
2024-03-26T22:44:42.803Z,0.1
2024-03-26T22:46:38.504Z,0.1
2024-03-26T22:48:44.313Z,0.1
2024-03-26T22:50:38.450Z,0.1
2024-03-26T22:52:41.032Z,0.1
2024-03-26T22:54:38.420Z,0.1
2024-03-26T22:56:43.593Z,0.1
2024-03-26T22:58:35.724Z,0.1
2024-03-26T23:00:40.082Z,0.1
2024-03-26T23:02:38.114Z,0.1
2024-03-26T23:04:41.395Z,0.1
2024-03-26T23:06:38.465Z,0.1
2024-03-26T23:08:40.116Z,0.1
2024-03-26T23:10:38.381Z,0.1
2024-03-26T23:12:45.763Z,0.1
2024-03-26T23:14:38.226Z,0.1
2024-03-26T23:16:39.948Z,0.1
2024-03-26T23:18:38.514Z,0.1
2024-03-26T23:20:40.389Z,0.1
2024-03-26T23:22:38.797Z,0.1
2024-03-26T23:24:40.427Z,0.1
2024-03-26T23:26:38.962Z,0.1
2024-03-26T23:28:43.134Z,0
2024-03-26T23:30:36.952Z,0
2024-03-26T23:32:39.564Z,0
2024-03-26T23:34:38.491Z,0
2024-03-26T23:36:43.039Z,0
2024-03-26T23:38:38.125Z,0
2024-03-26T23:40:40.074Z,0
2024-03-26T23:42:38.470Z,0
2024-03-26T23:44:45.350Z,0
2024-03-26T23:46:38.601Z,0
2024-03-26T23:48:41.519Z,0.1
2024-03-26T23:50:38.409Z,0
2024-03-26T23:52:44.254Z,0
2024-03-26T23:54:38.477Z,0
2024-03-26T23:58:45.718Z,1
